Time;durP1;ratioP1;P1;durP2;ratioP2;P2;SDS_P1;SDS_P2;PMS_P1;PMS_P2;Temp;Humidity;BMP_temperature;BMP_pressure;BME280_temperature;BME280_humidity;BME280_pressure;Samples;Min_cycle;Max_cycle;Signal;HPM_P1;HPM_P2
2022/10/16 00:00:44;;;;;;;5.50;3.80;;;15.70;99.90;;;;;;5007344;28;20441;-76
2022/10/16 00:03:10;;;;;;;3.20;2.67;;;15.80;99.90;;;;;;5005592;28;20207;-75
2022/10/16 00:05:41;;;;;;;10.43;4.13;;;15.80;99.90;;;;;;5001764;28;20187;-75
2022/10/16 00:08:08;;;;;;;3.10;2.83;;;15.80;99.90;;;;;;5004894;28;20429;-76
2022/10/16 00:10:33;;;;;;;5.17;3.70;;;15.80;99.90;;;;;;4994312;28;20442;-76
2022/10/16 00:12:59;;;;;;;3.73;3.30;;;15.80;99.90;;;;;;5002661;28;20477;-78
2022/10/16 00:15:25;;;;;;;3.60;3.10;;;15.70;99.90;;;;;;5003415;28;20190;-75
2022/10/16 00:17:50;;;;;;;4.03;3.63;;;15.70;99.90;;;;;;4999873;28;20612;-76
2022/10/16 00:20:16;;;;;;;4.37;3.67;;;15.60;99.90;;;;;;4991974;28;20657;-76
2022/10/16 00:22:41;;;;;;;3.83;3.27;;;15.50;99.90;;;;;;5003335;28;20618;-76
2022/10/16 00:25:07;;;;;;;3.20;2.87;;;15.50;99.90;;;;;;5007551;28;20198;-76
2022/10/16 00:27:33;;;;;;;2.37;2.10;;;15.50;99.90;;;;;;5006301;28;20233;-76
2022/10/16 00:29:59;;;;;;;4.00;2.37;;;15.50;99.90;;;;;;4999156;28;20191;-75
2022/10/16 00:32:25;;;;;;;3.30;3.00;;;15.50;99.90;;;;;;5003707;28;21045;-79
2022/10/16 00:34:50;;;;;;;4.20;2.73;;;15.40;99.90;;;;;;5006907;28;20890;-76
2022/10/16 00:37:16;;;;;;;3.23;2.93;;;15.70;99.90;;;;;;5000265;28;20675;-76
2022/10/16 00:39:41;;;;;;;7.47;3.17;;;15.40;99.90;;;;;;5003259;28;20665;-80
2022/10/16 00:42:14;;;;;;;3.53;3.20;;;15.30;99.90;;;;;;5003700;28;20215;-76
2022/10/16 00:44:52;;;;;;;2.63;2.43;;;15.30;99.90;;;;;;5004296;28;20215;-75
2022/10/16 00:47:26;;;;;;;3.30;3.03;;;15.30;99.90;;;;;;5008609;28;20426;-76
2022/10/16 00:49:59;;;;;;;10.63;3.70;;;15.30;99.90;;;;;;4996760;28;20433;-76
2022/10/16 00:52:25;;;;;;;9.50;7.30;;;15.40;99.90;;;;;;4999573;28;20532;-76
2022/10/16 00:54:53;;;;;;;7.30;4.93;;;15.40;99.90;;;;;;5007930;28;20520;-77
2022/10/16 00:57:19;;;;;;;2.70;2.50;;;15.40;99.90;;;;;;5006820;28;20182;-77
2022/10/16 00:59:45;;;;;;;2.70;2.30;;;15.30;99.90;;;;;;5003723;28;20512;-76
2022/10/16 01:02:14;;;;;;;3.10;2.17;;;15.30;99.90;;;;;;5002609;28;20602;-75
2022/10/16 01:04:58;;;;;;;2.70;2.00;;;15.30;99.90;;;;;;5004502;28;20470;-78
2022/10/16 01:07:56;;;;;;;3.40;1.83;;;15.40;99.90;;;;;;5006712;28;20437;-75
2022/10/16 01:10:31;;;;;;;5.47;2.47;;;15.30;99.90;;;;;;4993408;28;20430;-76
2022/10/16 01:13:12;;;;;;;3.50;2.60;;;15.30;99.90;;;;;;4991163;28;20469;-75
2022/10/16 01:15:47;;;;;;;7.10;4.00;;;15.30;99.90;;;;;;5004985;28;20789;-76
2022/10/16 01:18:18;;;;;;;2.40;2.20;;;15.30;99.90;;;;;;4997207;28;20441;-75
2022/10/16 01:20:54;;;;;;;3.23;2.27;;;15.30;99.90;;;;;;5004947;28;20477;-75
2022/10/16 01:23:19;;;;;;;3.20;2.17;;;15.30;99.90;;;;;;5003386;28;20465;-76
2022/10/16 01:25:45;;;;;;;5.30;2.40;;;15.30;99.90;;;;;;5005017;28;20440;-75
2022/10/16 01:28:12;;;;;;;3.27;2.20;;;15.40;99.90;;;;;;5002247;28;20199;-75
2022/10/16 01:30:41;;;;;;;3.83;2.20;;;15.30;99.90;;;;;;5006628;28;20708;-76
2022/10/16 01:33:21;;;;;;;2.07;1.97;;;15.40;99.90;;;;;;5004643;28;20848;-75
2022/10/16 01:35:52;;;;;;;2.10;2.00;;;15.30;99.90;;;;;;5003873;28;20472;-76
2022/10/16 01:38:23;;;;;;;4.57;1.80;;;15.30;99.90;;;;;;5001608;28;20457;-75
2022/10/16 01:40:58;;;;;;;2.30;2.10;;;15.30;99.90;;;;;;5000881;28;20427;-76
2022/10/16 01:43:37;;;;;;;4.83;2.07;;;15.30;99.90;;;;;;4993679;28;20827;-76
2022/10/16 01:46:03;;;;;;;2.33;2.13;;;15.30;99.90;;;;;;4991742;28;20429;-76
2022/10/16 01:48:31;;;;;;;3.10;2.80;;;15.30;99.90;;;;;;4993266;28;20469;-75
2022/10/16 01:51:12;;;;;;;2.63;2.30;;;15.20;99.90;;;;;;5006314;28;20460;-80
2022/10/16 01:53:42;;;;;;;2.20;2.00;;;15.20;99.90;;;;;;4992594;28;20498;-76
2022/10/16 01:56:12;;;;;;;4.87;2.90;;;15.30;99.90;;;;;;5001250;28;20991;-76
2022/10/16 01:58:47;;;;;;;2.73;2.30;;;15.20;99.90;;;;;;5003018;28;20445;-76
2022/10/16 02:01:16;;;;;;;4.83;2.63;;;15.20;99.90;;;;;;4999241;28;20474;-76
2022/10/16 02:03:44;;;;;;;3.20;2.80;;;15.10;99.90;;;;;;5001747;28;20823;-76
2022/10/16 02:06:09;;;;;;;4.70;2.53;;;15.10;99.90;;;;;;4994762;28;20578;-75
2022/10/16 02:08:35;;;;;;;4.33;2.53;;;15.10;99.90;;;;;;5001781;28;20510;-76
2022/10/16 02:11:02;;;;;;;2.43;2.23;;;15.00;99.90;;;;;;4997045;28;20261;-77
2022/10/16 02:13:41;;;;;;;3.93;2.80;;;15.00;99.90;;;;;;4993124;28;20474;-77
2022/10/16 02:16:07;;;;;;;4.67;2.70;;;15.00;99.90;;;;;;4990948;28;20470;-76
2022/10/16 02:18:33;;;;;;;5.43;2.73;;;15.00;99.90;;;;;;4992704;28;20982;-75
2022/10/16 02:21:23;;;;;;;2.90;2.10;;;15.00;99.90;;;;;;4992178;28;20434;-76
2022/10/16 02:24:12;;;;;;;3.50;2.80;;;15.10;99.90;;;;;;4992734;28;20216;-76
2022/10/16 02:26:48;;;;;;;4.87;2.60;;;15.10;99.90;;;;;;4990449;28;20465;-76
2022/10/16 02:29:17;;;;;;;4.70;2.10;;;15.10;99.90;;;;;;4993098;28;20430;-76
2022/10/16 02:31:47;;;;;;;3.33;2.03;;;15.20;99.90;;;;;;4991339;28;20517;-75
2022/10/16 02:34:15;;;;;;;4.70;2.50;;;15.20;99.90;;;;;;4994093;28;20458;-77
2022/10/16 02:36:42;;;;;;;4.83;2.63;;;15.20;99.90;;;;;;4994603;28;20523;-76
2022/10/16 02:39:08;;;;;;;2.80;2.20;;;15.20;99.90;;;;;;5004514;28;20438;-76
2022/10/16 02:41:34;;;;;;;2.70;2.50;;;15.20;99.90;;;;;;5003852;28;20465;-77
2022/10/16 02:43:59;;;;;;;4.20;3.17;;;15.20;99.90;;;;;;5000651;28;20462;-75
2022/10/16 02:46:25;;;;;;;2.73;2.47;;;15.20;99.90;;;;;;5001303;28;20172;-76
2022/10/16 02:48:50;;;;;;;6.07;2.63;;;15.20;99.90;;;;;;5003815;28;20529;-78
2022/10/16 02:51:16;;;;;;;3.10;2.70;;;15.30;99.90;;;;;;4997936;28;20250;-76
2022/10/16 02:53:41;;;;;;;3.40;2.27;;;15.20;99.90;;;;;;4995236;28;20231;-81
2022/10/16 02:56:07;;;;;;;2.10;1.67;;;15.30;99.90;;;;;;4995774;28;20223;-76
2022/10/16 02:58:32;;;;;;;3.50;2.20;;;15.30;99.90;;;;;;4999763;28;20218;-76
2022/10/16 03:00:58;;;;;;;3.20;2.10;;;15.30;99.90;;;;;;4992407;28;20171;-76
2022/10/16 03:03:23;;;;;;;2.77;2.57;;;15.30;99.90;;;;;;4991988;28;20278;-78
2022/10/16 03:05:49;;;;;;;3.47;3.17;;;15.20;99.90;;;;;;4991708;28;20400;-75
2022/10/16 03:08:15;;;;;;;2.83;2.50;;;15.20;99.90;;;;;;4991404;28;20187;-75
2022/10/16 03:10:41;;;;;;;4.57;2.60;;;15.20;99.90;;;;;;4991121;28;20175;-76
2022/10/16 03:13:06;;;;;;;7.17;2.43;;;15.20;99.90;;;;;;4991882;28;20493;-75
2022/10/16 03:15:32;;;;;;;2.63;2.07;;;15.20;99.90;;;;;;4991624;28;20233;-76
2022/10/16 03:17:58;;;;;;;3.60;2.57;;;15.20;99.90;;;;;;4990636;28;20520;-75
2022/10/16 03:20:24;;;;;;;8.83;3.30;;;15.20;99.90;;;;;;4990370;28;20619;-75
2022/10/16 03:22:50;;;;;;;2.23;2.03;;;15.20;99.90;;;;;;4991755;28;20466;-75
2022/10/16 03:25:15;;;;;;;6.10;2.70;;;15.20;99.90;;;;;;4992014;28;20817;-78
2022/10/16 03:27:41;;;;;;;7.60;2.90;;;15.20;99.90;;;;;;4991392;28;20176;-75
2022/10/16 03:30:07;;;;;;;2.40;1.90;;;15.20;99.90;;;;;;4993267;28;20197;-76
2022/10/16 03:32:33;;;;;;;2.67;1.90;;;15.10;99.90;;;;;;4991335;28;20196;-75
2022/10/16 03:34:58;;;;;;;6.20;2.40;;;15.10;99.90;;;;;;4996332;28;20577;-77
2022/10/16 03:37:24;;;;;;;6.37;2.03;;;15.10;99.90;;;;;;4992423;28;20246;-76
2022/10/16 03:39:50;;;;;;;1.80;1.67;;;15.10;99.90;;;;;;4999776;28;20604;-75
2022/10/16 03:42:15;;;;;;;3.33;2.23;;;15.10;99.90;;;;;;4994929;28;20286;-77
2022/10/16 03:44:41;;;;;;;4.67;2.40;;;15.20;99.90;;;;;;5008122;28;20198;-75
2022/10/16 03:47:06;;;;;;;2.83;2.63;;;15.20;99.90;;;;;;4998246;28;20184;-75
2022/10/16 03:49:32;;;;;;;3.27;2.33;;;15.20;99.90;;;;;;4989557;28;20238;-77
2022/10/16 03:51:57;;;;;;;2.90;2.70;;;15.10;99.90;;;;;;4991247;28;20244;-75
2022/10/16 03:54:23;;;;;;;5.20;2.23;;;15.10;99.90;;;;;;4992243;28;20250;-75
2022/10/16 03:56:48;;;;;;;3.13;2.13;;;15.10;99.90;;;;;;4989439;28;20227;-76
2022/10/16 03:59:14;;;;;;;3.93;2.30;;;15.10;99.90;;;;;;4989450;28;20210;-75
2022/10/16 04:01:39;;;;;;;3.60;2.57;;;15.10;99.90;;;;;;4991422;28;20187;-75
2022/10/16 04:04:05;;;;;;;4.97;2.30;;;15.10;99.90;;;;;;4988918;28;20256;-76
2022/10/16 04:06:30;;;;;;;3.77;2.47;;;15.10;99.90;;;;;;4999326;28;20187;-76
2022/10/16 04:08:56;;;;;;;2.40;2.20;;;15.10;99.90;;;;;;4991479;28;20171;-76
2022/10/16 04:11:22;;;;;;;2.00;1.90;;;15.10;99.90;;;;;;4998137;28;20178;-76
2022/10/16 04:13:48;;;;;;;2.00;1.90;;;15.10;99.90;;;;;;4991590;28;20301;-76
2022/10/16 04:16:13;;;;;;;4.27;2.30;;;15.10;99.90;;;;;;4998750;28;20390;-75
2022/10/16 04:18:39;;;;;;;2.57;2.37;;;15.10;99.90;;;;;;4991622;28;20175;-75
2022/10/16 04:21:06;;;;;;;3.27;2.33;;;15.10;99.90;;;;;;4990638;28;20187;-75
2022/10/16 04:23:32;;;;;;;2.40;2.20;;;15.10;99.90;;;;;;4991184;28;20211;-76
2022/10/16 04:25:58;;;;;;;4.53;2.50;;;15.10;99.90;;;;;;4994574;28;20584;-76
2022/10/16 04:28:23;;;;;;;2.40;2.20;;;15.10;99.90;;;;;;4990750;28;20665;-76
2022/10/16 04:30:49;;;;;;;2.93;2.07;;;15.10;99.90;;;;;;4990335;28;20287;-75
2022/10/16 04:33:14;;;;;;;2.80;2.50;;;15.10;99.90;;;;;;4990643;28;20211;-75
2022/10/16 04:35:40;;;;;;;2.27;2.07;;;15.10;99.90;;;;;;4988590;28;20257;-77
2022/10/16 04:38:05;;;;;;;2.53;2.10;;;15.10;99.90;;;;;;4989255;28;20180;-77
2022/10/16 04:40:32;;;;;;;3.07;2.10;;;15.10;99.90;;;;;;4983813;28;20680;-76
2022/10/16 04:42:59;;;;;;;3.07;2.77;;;15.10;99.90;;;;;;4994519;28;20764;-75
2022/10/16 04:45:25;;;;;;;4.90;2.60;;;15.10;99.90;;;;;;4999039;28;20963;-77
2022/10/16 04:47:50;;;;;;;3.37;2.60;;;15.10;99.90;;;;;;4991406;28;20481;-75
2022/10/16 04:50:16;;;;;;;6.23;2.40;;;15.10;99.90;;;;;;4990232;28;20438;-75
2022/10/16 04:52:41;;;;;;;2.63;2.43;;;15.10;99.90;;;;;;4990570;28;20250;-75
2022/10/16 04:55:07;;;;;;;3.93;2.40;;;15.10;99.90;;;;;;4989587;28;20194;-75
2022/10/16 04:57:33;;;;;;;2.40;2.20;;;15.10;99.90;;;;;;4990683;28;20180;-76
2022/10/16 04:59:59;;;;;;;3.73;2.53;;;15.10;99.90;;;;;;4990449;28;20172;-75
2022/10/16 05:02:24;;;;;;;2.83;2.57;;;15.10;99.90;;;;;;4989450;28;20211;-76
2022/10/16 05:04:51;;;;;;;2.60;2.40;;;15.00;99.90;;;;;;4989904;28;20216;-77
2022/10/16 05:07:16;;;;;;;2.43;2.20;;;15.00;99.90;;;;;;4989714;28;20182;-77
2022/10/16 05:09:42;;;;;;;2.43;2.30;;;15.00;99.90;;;;;;4993338;28;20434;-75
2022/10/16 05:12:07;;;;;;;2.30;2.10;;;15.00;99.90;;;;;;4995111;28;20642;-75
2022/10/16 05:14:33;;;;;;;4.03;2.23;;;15.10;99.90;;;;;;4993467;28;20183;-77
2022/10/16 05:17:00;;;;;;;3.50;3.00;;;15.10;99.90;;;;;;4994864;28;20557;-75
2022/10/16 05:19:25;;;;;;;2.43;2.23;;;15.10;99.90;;;;;;4993948;28;21920;-77
2022/10/16 05:21:51;;;;;;;7.33;2.50;;;15.10;99.90;;;;;;4993763;28;20470;-75
2022/10/16 05:24:16;;;;;;;3.03;2.00;;;15.00;99.90;;;;;;4999766;28;20203;-76
2022/10/16 05:26:42;;;;;;;5.47;2.87;;;15.00;99.90;;;;;;5002233;28;20519;-76
2022/10/16 05:29:08;;;;;;;3.40;2.03;;;14.90;99.90;;;;;;4994415;28;20666;-75
2022/10/16 05:31:34;;;;;;;6.40;5.80;;;14.80;99.90;;;;;;4996744;28;20191;-75
2022/10/16 05:34:00;;;;;;;4.63;3.23;;;14.80;99.90;;;;;;4993017;28;20458;-75
2022/10/16 05:36:25;;;;;;;3.63;2.23;;;14.80;99.90;;;;;;4985903;28;20579;-76
2022/10/16 05:38:52;;;;;;;3.67;2.20;;;14.80;99.90;;;;;;4992655;28;20837;-77
2022/10/16 05:41:21;;;;;;;2.60;2.13;;;14.80;99.90;;;;;;4993238;28;20190;-77
2022/10/16 05:43:48;;;;;;;7.17;3.50;;;14.70;99.90;;;;;;4994892;28;20473;-75
2022/10/16 05:46:14;;;;;;;3.73;2.57;;;14.60;99.90;;;;;;5000908;28;20434;-75
2022/10/16 05:48:39;;;;;;;3.73;2.00;;;14.80;99.90;;;;;;4992419;28;20718;-75
2022/10/16 05:51:07;;;;;;;4.70;2.47;;;14.80;99.90;;;;;;4992389;28;20429;-75
2022/10/16 05:53:34;;;;;;;2.53;2.33;;;14.80;99.90;;;;;;4992550;28;20292;-79
2022/10/16 05:56:00;;;;;;;5.20;2.63;;;14.90;99.90;;;;;;4992074;28;20435;-77
2022/10/16 05:58:30;;;;;;;3.23;2.47;;;14.90;99.90;;;;;;4993889;28;20484;-75
2022/10/16 06:01:01;;;;;;;3.40;2.17;;;15.00;99.90;;;;;;4986211;28;20435;-75
2022/10/16 06:03:27;;;;;;;4.07;2.50;;;15.00;99.90;;;;;;4991024;28;20470;-75
2022/10/16 06:05:53;;;;;;;3.63;2.37;;;15.10;99.90;;;;;;4992720;28;21023;-75
2022/10/16 06:08:20;;;;;;;2.43;2.20;;;15.20;99.90;;;;;;4990589;28;20454;-75
2022/10/16 06:10:46;;;;;;;9.00;2.30;;;15.20;99.90;;;;;;5008878;28;20426;-75
2022/10/16 06:13:13;;;;;;;2.60;2.40;;;15.30;99.90;;;;;;4993096;28;20473;-75
2022/10/16 06:15:41;;;;;;;6.27;5.70;;;15.30;99.90;;;;;;4992379;28;20222;-75
2022/10/16 06:18:08;;;;;;;6.03;4.07;;;15.30;99.90;;;;;;4990555;28;20466;-76
2022/10/16 06:20:34;;;;;;;3.80;3.30;;;15.40;99.90;;;;;;4992836;28;20441;-75
2022/10/16 06:23:00;;;;;;;4.50;3.00;;;15.50;99.90;;;;;;4992471;28;20459;-75
2022/10/16 06:25:25;;;;;;;2.83;2.63;;;15.70;99.90;;;;;;4992004;28;20544;-76
2022/10/16 06:27:51;;;;;;;5.90;4.93;;;15.70;99.90;;;;;;4992870;28;20175;-77
2022/10/16 06:30:16;;;;;;;8.07;5.57;;;15.70;99.90;;;;;;4991870;28;20242;-75
2022/10/16 06:32:42;;;;;;;4.13;2.57;;;15.70;99.90;;;;;;4991424;28;20693;-76
2022/10/16 06:35:07;;;;;;;3.60;2.93;;;15.80;99.90;;;;;;4989276;28;20214;-78
2022/10/16 06:37:33;;;;;;;3.77;3.17;;;15.70;99.90;;;;;;4992139;28;20226;-76
2022/10/16 06:39:59;;;;;;;4.73;2.40;;;15.80;99.90;;;;;;4991821;28;20176;-75
2022/10/16 06:42:25;;;;;;;5.23;2.20;;;15.90;99.90;;;;;;5001384;28;20294;-76
2022/10/16 06:44:50;;;;;;;3.67;3.33;;;16.00;99.90;;;;;;4999743;28;20557;-76
2022/10/16 06:47:16;;;;;;;3.57;2.77;;;16.30;99.90;;;;;;4990811;28;20263;-75
2022/10/16 06:49:41;;;;;;;8.53;5.37;;;16.60;99.90;;;;;;4991509;28;20769;-75
2022/10/16 06:52:07;;;;;;;2.77;2.30;;;17.10;99.90;;;;;;4992901;28;20175;-75
2022/10/16 06:54:32;;;;;;;3.10;2.43;;;17.20;99.90;;;;;;4997725;28;20202;-77
2022/10/16 06:56:59;;;;;;;2.80;2.53;;;17.30;99.90;;;;;;4995523;28;20176;-76
2022/10/16 06:59:25;;;;;;;4.60;2.47;;;17.20;99.90;;;;;;5004461;28;20695;-75
2022/10/16 07:01:50;;;;;;;5.47;2.77;;;17.10;99.90;;;;;;5000796;28;20447;-75
2022/10/16 07:04:16;;;;;;;3.80;2.43;;;17.10;99.90;;;;;;5001578;28;20309;-75
2022/10/16 07:06:41;;;;;;;4.40;3.63;;;17.00;99.90;;;;;;5000688;28;20182;-75
2022/10/16 07:09:10;;;;;;;3.20;2.90;;;17.00;99.90;;;;;;4995538;28;20171;-76
2022/10/16 07:11:38;;;;;;;5.00;3.30;;;17.00;99.90;;;;;;4993356;28;20226;-77
2022/10/16 07:14:04;;;;;;;3.70;3.40;;;17.00;99.90;;;;;;4998201;28;20514;-75
2022/10/16 07:16:32;;;;;;;3.53;3.20;;;17.10;99.90;;;;;;4997350;28;20502;-75
2022/10/16 07:19:00;;;;;;;6.50;2.70;;;17.10;99.90;;;;;;5009324;28;20441;-75
2022/10/16 07:21:36;;;;;;;3.13;2.87;;;17.20;99.90;;;;;;4995345;28;20444;-75
2022/10/16 07:24:04;;;;;;;4.03;3.23;;;17.20;99.90;;;;;;4997922;28;20458;-75
2022/10/16 07:26:32;;;;;;;3.57;2.60;;;17.20;99.90;;;;;;5005288;28;20449;-75
2022/10/16 07:28:58;;;;;;;3.93;2.93;;;17.10;99.90;;;;;;4991711;28;20440;-75
2022/10/16 07:31:24;;;;;;;2.97;2.70;;;17.10;99.90;;;;;;5001428;28;20442;-75
2022/10/16 07:33:51;;;;;;;4.23;3.20;;;17.10;99.90;;;;;;4999765;28;20838;-75
2022/10/16 07:36:18;;;;;;;3.13;2.93;;;17.10;99.90;;;;;;5007229;28;20430;-75
2022/10/16 07:38:44;;;;;;;3.60;3.10;;;17.10;99.90;;;;;;4995579;28;20437;-75
2022/10/16 07:41:13;;;;;;;9.90;2.40;;;17.10;99.90;;;;;;4997490;28;20903;-75
2022/10/16 07:43:39;;;;;;;3.60;3.30;;;17.10;99.90;;;;;;4990356;28;20841;-75
2022/10/16 07:46:05;;;;;;;5.83;3.87;;;17.10;99.90;;;;;;4997768;28;20489;-75
2022/10/16 07:48:33;;;;;;;5.63;3.70;;;17.20;99.90;;;;;;4991810;28;20430;-76
2022/10/16 07:51:05;;;;;;;3.83;3.10;;;17.30;99.90;;;;;;4991015;28;20187;-75
2022/10/16 07:53:31;;;;;;;3.93;3.63;;;17.30;99.90;;;;;;4992168;28;20995;-75
2022/10/16 07:56:04;;;;;;;3.43;3.13;;;17.30;99.90;;;;;;4996639;28;20982;-78
2022/10/16 07:58:30;;;;;;;3.90;3.00;;;17.40;99.90;;;;;;4993090;28;20430;-76
2022/10/16 08:00:57;;;;;;;3.50;2.50;;;17.30;99.90;;;;;;4994804;28;20449;-76
2022/10/16 08:03:23;;;;;;;6.00;2.60;;;17.30;99.90;;;;;;4990472;28;20458;-77
2022/10/16 08:05:50;;;;;;;4.23;3.00;;;17.20;99.90;;;;;;4994478;28;20434;-76
2022/10/16 08:08:17;;;;;;;3.30;2.80;;;17.20;99.90;;;;;;4995662;28;20434;-76
2022/10/16 08:10:42;;;;;;;3.27;2.90;;;17.40;99.90;;;;;;4991350;28;20433;-76
2022/10/16 08:13:08;;;;;;;8.03;2.90;;;17.50;99.90;;;;;;4996836;28;20836;-75
2022/10/16 08:15:33;;;;;;;3.13;2.47;;;17.70;99.90;;;;;;4997129;28;20246;-76
2022/10/16 08:18:02;;;;;;;6.00;3.10;;;17.90;99.90;;;;;;4995675;28;20183;-76
2022/10/16 08:20:29;;;;;;;11.00;8.37;;;18.00;99.90;;;;;;4994652;28;20188;-76
2022/10/16 08:22:55;;;;;;;2.77;2.47;;;18.20;99.90;;;;;;4989884;28;20460;-76
2022/10/16 08:25:22;;;;;;;4.50;2.47;;;18.30;99.90;;;;;;4990448;28;20466;-79
2022/10/16 08:27:48;;;;;;;3.20;2.80;;;18.40;99.90;;;;;;4986717;28;20435;-77
2022/10/16 08:30:14;;;;;;;5.67;2.23;;;18.50;99.90;;;;;;4989981;28;20530;-75
2022/10/16 08:32:41;;;;;;;2.67;2.10;;;18.50;99.90;;;;;;4991634;28;20215;-75
2022/10/16 08:35:07;;;;;;;5.67;2.10;;;18.70;99.90;;;;;;4999480;28;20461;-75
2022/10/16 08:37:33;;;;;;;3.27;2.50;;;19.00;99.90;;;;;;4991526;28;20446;-75
2022/10/16 08:39:59;;;;;;;10.07;3.60;;;19.30;99.90;;;;;;4991939;28;20470;-76
2022/10/16 08:42:44;;;;;;;2.47;2.27;;;19.30;99.90;;;;;;4991514;28;20222;-76
2022/10/16 08:45:38;;;;;;;5.60;2.07;;;19.30;99.90;;;;;;4997806;28;20210;-77
2022/10/16 08:48:13;;;;;;;4.50;1.90;;;19.20;99.90;;;;;;4987574;28;20883;-76
2022/10/16 08:50:40;;;;;;;6.20;2.37;;;19.10;99.90;;;;;;4994039;28;20434;-78
2022/10/16 08:53:06;;;;;;;2.70;2.47;;;19.00;99.90;;;;;;4994513;28;20593;-78
2022/10/16 08:55:43;;;;;;;3.50;2.57;;;18.90;99.90;;;;;;5002778;28;20529;-78
2022/10/16 08:58:21;;;;;;;2.37;2.17;;;18.80;99.90;;;;;;4994347;28;20449;-73
2022/10/16 09:00:56;;;;;;;2.60;2.30;;;18.90;99.90;;;;;;5004567;28;20861;-77
2022/10/16 09:03:33;;;;;;;2.70;2.20;;;18.70;99.90;;;;;;4996664;28;20468;-77
2022/10/16 09:06:16;;;;;;;3.60;2.20;;;19.00;99.90;;;;;;4996935;28;20471;-76
2022/10/16 09:08:42;;;;;;;4.60;2.97;;;19.50;99.90;;;;;;4990615;28;20795;-77
2022/10/16 09:11:34;;;;;;;7.63;4.87;;;19.70;99.90;;;;;;4994672;28;20442;-77
2022/10/16 09:14:05;;;;;;;5.03;4.07;;;20.00;99.90;;;;;;4994318;28;20250;-77
2022/10/16 09:16:46;;;;;;;3.70;2.80;;;20.40;99.90;;;;;;4998159;28;20441;-76
2022/10/16 09:19:19;;;;;;;2.47;2.27;;;20.80;99.90;;;;;;4992840;28;20446;-75
2022/10/16 09:21:47;;;;;;;2.43;2.33;;;20.90;99.90;;;;;;5000284;28;20434;-77
2022/10/16 09:24:18;;;;;;;2.97;2.20;;;21.90;99.90;;;;;;4994307;28;21008;-78
2022/10/16 09:26:44;;;;;;;3.13;2.37;;;22.80;99.90;;;;;;4998724;28;20445;-77
2022/10/16 09:29:15;;;;;;;4.27;2.20;;;22.50;99.90;;;;;;4994106;28;20943;-77
2022/10/16 09:31:42;;;;;;;2.10;2.00;;;22.10;99.90;;;;;;5001207;28;20445;-77
2022/10/16 09:34:18;;;;;;;2.07;1.77;;;21.80;99.90;;;;;;4994568;28;20549;-77
2022/10/16 09:36:46;;;;;;;2.97;1.60;;;23.50;99.90;;;;;;5002199;28;20446;-77
2022/10/16 09:39:12;;;;;;;2.03;1.90;;;25.50;99.90;;;;;;4993604;28;20446;-77
2022/10/16 09:41:41;;;;;;;2.80;2.03;;;26.50;99.90;;;;;;5014858;28;21011;-77
2022/10/16 09:44:23;;;;;;;2.60;2.40;;;26.10;99.90;;;;;;4993760;28;20466;-77
2022/10/16 09:46:49;;;;;;;3.13;1.83;;;25.10;99.90;;;;;;4992731;28;20442;-77
2022/10/16 09:49:26;;;;;;;5.20;2.33;;;24.80;99.90;;;;;;5001293;28;20496;-77
2022/10/16 09:52:11;;;;;;;2.87;1.90;;;25.90;99.90;;;;;;4996589;28;20194;-77
2022/10/16 09:54:36;;;;;;;5.53;2.60;;;28.70;99.90;;;;;;4995588;28;20947;-78
2022/10/16 09:57:07;;;;;;;2.50;2.30;;;29.10;96.40;;;;;;4998377;28;20433;-77
2022/10/16 09:59:33;;;;;;;4.70;1.90;;;27.40;97.70;;;;;;4994120;28;20195;-77
2022/10/16 10:02:04;;;;;;;2.10;1.90;;;26.20;99.90;;;;;;4995089;28;20479;-77
2022/10/16 10:04:40;;;;;;;2.73;2.20;;;26.00;99.90;;;;;;4997445;28;20466;-77
2022/10/16 10:07:16;;;;;;;1.77;1.67;;;26.20;99.90;;;;;;4998729;28;20456;-77
2022/10/16 10:09:45;;;;;;;3.70;2.27;;;26.20;99.90;;;;;;4996386;28;20963;-77
2022/10/16 10:12:20;;;;;;;2.37;2.17;;;25.30;99.90;;;;;;4999144;28;20453;-77
2022/10/16 10:14:55;;;;;;;2.80;2.17;;;25.20;99.90;;;;;;4992792;28;20457;-77
2022/10/16 10:17:28;;;;;;;2.37;2.10;;;24.30;99.90;;;;;;5001807;28;21014;-77
2022/10/16 10:19:54;;;;;;;2.33;2.13;;;24.20;99.90;;;;;;5003855;28;20437;-77
2022/10/16 10:22:44;;;;;;;2.03;1.77;;;25.30;99.90;;;;;;5005125;28;20461;-77
2022/10/16 10:25:12;;;;;;;1.80;1.70;;;26.40;99.90;;;;;;4995863;28;20493;-77
2022/10/16 10:28:05;;;;;;;5.23;2.30;;;27.40;99.10;;;;;;5002005;28;20439;-77
2022/10/16 10:30:56;;;;;;;1.80;1.70;;;26.80;99.80;;;;;;4996955;28;20800;-77
2022/10/16 10:33:31;;;;;;;2.63;1.93;;;26.00;99.80;;;;;;4997807;28;20817;-76
2022/10/16 10:36:08;;;;;;;1.80;1.70;;;26.10;99.90;;;;;;5003802;28;20429;-76
2022/10/16 10:38:56;;;;;;;6.37;1.97;;;26.10;99.90;;;;;;4996011;28;20994;-76
2022/10/16 10:41:59;;;;;;;3.47;2.10;;;25.90;99.90;;;;;;4997534;28;20441;-76
2022/10/16 10:45:12;;;;;;;4.37;2.00;;;26.30;99.90;;;;;;4997240;28;20458;-76
2022/10/16 10:48:00;;;;;;;1.93;1.60;;;26.60;99.90;;;;;;4987386;28;20444;-75
2022/10/16 10:50:54;;;;;;;5.67;1.40;;;28.20;95.50;;;;;;4985343;28;20866;-76
2022/10/16 10:53:35;;;;;;;3.83;1.70;;;30.30;91.90;;;;;;4996953;28;20460;-76
2022/10/16 10:56:13;;;;;;;1.67;1.57;;;33.30;80.90;;;;;;4990073;28;20930;-72
2022/10/16 10:58:57;;;;;;;3.57;1.30;;;34.90;73.30;;;;;;4993700;28;20413;-69
2022/10/16 11:01:52;;;;;;;2.50;1.80;;;35.40;64.70;;;;;;4992407;28;20521;-69
2022/10/16 11:05:01;;;;;;;2.27;1.73;;;35.10;63.60;;;;;;4994286;28;20462;-69
2022/10/16 11:07:43;;;;;;;2.47;1.43;;;35.70;61.00;;;;;;4991476;28;20583;-70
2022/10/16 11:10:16;;;;;;;3.40;2.87;;;35.20;59.00;;;;;;4994066;28;20964;-70
2022/10/16 11:12:52;;;;;;;5.13;1.83;;;35.20;58.00;;;;;;5001186;28;20540;-70
2022/10/16 11:15:24;;;;;;;2.40;1.53;;;34.70;57.30;;;;;;4998474;28;20518;-71
2022/10/16 11:18:21;;;;;;;2.50;1.60;;;33.10;56.80;;;;;;5000326;28;20433;-68
2022/10/16 11:21:02;;;;;;;3.00;1.70;;;30.50;62.20;;;;;;5002786;28;20437;-68
2022/10/16 11:23:35;;;;;;;2.00;1.90;;;28.40;68.90;;;;;;5004503;28;20862;-68
2022/10/16 11:26:06;;;;;;;2.43;1.90;;;27.00;76.00;;;;;;4992674;28;20433;-68
2022/10/16 11:28:31;;;;;;;7.93;2.70;;;26.70;83.60;;;;;;5014935;28;20969;-68
2022/10/16 11:31:03;;;;;;;4.50;2.30;;;26.90;83.90;;;;;;4995381;28;20531;-70
2022/10/16 11:33:37;;;;;;;2.50;2.30;;;27.20;83.30;;;;;;5001157;28;20210;-72
2022/10/16 11:36:06;;;;;;;2.70;1.80;;;27.70;82.20;;;;;;4994851;28;20464;-71
2022/10/16 11:38:37;;;;;;;1.97;1.87;;;28.60;80.70;;;;;;4994997;28;20447;-69
2022/10/16 11:41:17;;;;;;;2.30;1.70;;;29.40;76.80;;;;;;5004312;28;20517;-68
2022/10/16 11:43:50;;;;;;;5.83;2.60;;;29.80;74.80;;;;;;5000223;28;20464;-69
2022/10/16 11:46:20;;;;;;;2.30;2.20;;;29.40;74.40;;;;;;4996530;28;20474;-68
2022/10/16 11:48:49;;;;;;;1.80;1.70;;;30.10;73.30;;;;;;4999440;28;20438;-68
2022/10/16 11:51:48;;;;;;;2.80;2.37;;;30.90;71.10;;;;;;4999984;28;20446;-68
2022/10/16 11:54:16;;;;;;;4.10;2.03;;;32.70;66.50;;;;;;5003796;28;20477;-69
2022/10/16 11:56:45;;;;;;;1.93;1.80;;;32.20;65.00;;;;;;4998705;28;20541;-69
2022/10/16 11:59:41;;;;;;;2.37;2.27;;;33.30;62.60;;;;;;5007402;28;20931;-68
2022/10/16 12:02:28;;;;;;;3.30;2.17;;;33.30;60.40;;;;;;4993542;28;20441;-69
2022/10/16 12:05:03;;;;;;;8.90;1.80;;;34.40;57.80;;;;;;5001605;28;20467;-69
2022/10/16 12:07:36;;;;;;;3.27;1.77;;;35.50;56.40;;;;;;5000118;28;20437;-69
2022/10/16 12:10:20;;;;;;;4.33;1.70;;;36.50;54.60;;;;;;4991070;28;21086;-69
2022/10/16 12:12:46;;;;;;;2.50;2.30;;;37.20;51.70;;;;;;5001281;28;20526;-69
2022/10/16 12:15:23;;;;;;;2.40;2.20;;;37.40;50.60;;;;;;4998245;28;20474;-69
2022/10/16 12:17:49;;;;;;;2.13;1.93;;;38.90;49.20;;;;;;4999107;28;20207;-69
2022/10/16 12:20:32;;;;;;;2.90;1.80;;;39.20;48.00;;;;;;4994811;28;20449;-69
2022/10/16 12:23:06;;;;;;;1.60;1.50;;;39.40;46.50;;;;;;4988464;28;20453;-69
2022/10/16 12:25:37;;;;;;;1.90;1.80;;;38.70;46.60;;;;;;4994173;28;20443;-69
2022/10/16 12:28:15;;;;;;;3.07;1.40;;;38.40;46.30;;;;;;4993409;28;20468;-69
2022/10/16 12:30:42;;;;;;;2.10;1.90;;;37.00;48.10;;;;;;4991026;28;20435;-69
2022/10/16 12:33:26;;;;;;;2.83;2.27;;;37.30;48.30;;;;;;4989297;28;20834;-69
2022/10/16 12:35:52;;;;;;;1.67;1.57;;;37.10;48.00;;;;;;4991481;28;20438;-69
2022/10/16 12:38:21;;;;;;;1.90;1.80;;;36.50;48.50;;;;;;4996420;28;20909;-69
2022/10/16 12:41:01;;;;;;;2.20;2.00;;;35.30;49.20;;;;;;4995632;28;20530;-69
2022/10/16 12:43:35;;;;;;;2.20;2.00;;;34.50;50.50;;;;;;4995848;28;20467;-68
2022/10/16 12:46:10;;;;;;;4.67;2.03;;;33.50;51.50;;;;;;4985832;28;20434;-68
2022/10/16 12:48:38;;;;;;;2.30;2.10;;;32.70;52.90;;;;;;4993658;28;20426;-69
2022/10/16 12:51:12;;;;;;;1.80;1.70;;;32.00;53.80;;;;;;4993102;28;20432;-68
2022/10/16 12:53:38;;;;;;;2.57;2.23;;;30.80;55.80;;;;;;4996742;28;20469;-69
2022/10/16 12:56:08;;;;;;;2.30;2.10;;;29.60;57.30;;;;;;4987880;28;20438;-69
2022/10/16 12:58:54;;;;;;;4.20;2.70;;;28.70;58.80;;;;;;4989973;28;20206;-69
2022/10/16 13:01:46;;;;;;;3.10;2.00;;;28.10;64.70;;;;;;5003648;28;20447;-68